Terminal Aerodrome Forecast
Issued by NWS

Home | Current Version | Previous Version | Text Only | Print | Product List | Glossary On
Versions: 1 2 3 4 5 6 7 8 9 10 11 12 13 14 15 16 17
554
FTUS43 KIND 241749 AAA
TAFHUF
TAF AMD
KHUF 241749Z 2418/2518 36006KT 5SM -RA BR SCT008 BKN045
      TEMPO 2418/2420 BKN008
     FM250000 33006KT 5SM -SHRA BR OVC015
     FM250900 32009KT P6SM VCSH OVC008
     FM251200 31009KT P6SM OVC010
     FM251700 31011KT P6SM BKN035=

USA.gov is the U.S. government's official web portal to all federal, state and local government web resources and services.